Time;durP1;ratioP1;P1;durP2;ratioP2;P2;SDS_P1;SDS_P2;PMS_P1;PMS_P2;Temp;Humidity;BMP_temperature;BMP_pressure;BME280_temperature;BME280_humidity;BME280_pressure;Samples;Min_cycle;Max_cycle;Signal;HPM_P1;HPM_P2
2022/12/31 00:00:09;;;;;;;2.35;1.33;;;;;;;11.87;100.00;100285.72;5120853;27;20104;-88
2022/12/31 00:02:35;;;;;;;2.30;1.40;;;;;;;11.86;100.00;100275.13;5142136;27;20051;-88
2022/12/31 00:05:01;;;;;;;3.58;1.42;;;;;;;11.87;100.00;100283.06;5118511;27;20068;-88
2022/12/31 00:07:26;;;;;;;2.08;1.50;;;;;;;11.86;100.00;100277.75;5131338;27;20509;-87
2022/12/31 00:09:52;;;;;;;2.30;1.35;;;;;;;11.84;100.00;100272.50;5137860;27;20042;-88
2022/12/31 00:12:17;;;;;;;2.40;1.42;;;;;;;11.94;100.00;100273.06;5132441;27;20457;-88
2022/12/31 00:14:43;;;;;;;1.67;1.42;;;;;;;11.86;100.00;100281.28;5117947;27;20027;-88
2022/12/31 00:17:08;;;;;;;3.88;1.77;;;;;;;11.90;100.00;100277.63;5116882;27;20421;-86
2022/12/31 00:19:34;;;;;;;1.85;1.52;;;;;;;11.92;100.00;100277.56;5101059;27;20043;-87
2022/12/31 00:21:59;;;;;;;2.22;1.42;;;;;;;11.96;100.00;100276.53;5149172;27;20027;-88
2022/12/31 00:24:29;;;;;;;1.75;1.50;;;;;;;11.96;100.00;100276.53;5108280;27;20490;-88
2022/12/31 00:26:55;;;;;;;2.13;1.50;;;;;;;11.93;100.00;100268.69;5122709;27;20039;-88
2022/12/31 00:29:21;;;;;;;1.67;1.42;;;;;;;11.92;100.00;100277.56;5139089;27;20490;-88
2022/12/31 00:31:46;;;;;;;2.75;1.63;;;;;;;11.89;100.00;100290.94;5135019;27;20083;-89
2022/12/31 00:34:12;;;;;;;2.38;1.88;;;;;;;11.94;100.00;100279.28;5108842;27;20074;-89
2022/12/31 00:36:38;;;;;;;4.10;1.50;;;;;;;11.91;100.00;100263.44;5122453;27;20391;-88
2022/12/31 00:39:07;;;;;;;4.07;1.70;;;;;;;11.90;100.00;100259.06;5129488;27;20042;-88
2022/12/31 00:41:33;;;;;;;1.67;1.48;;;;;;;11.90;100.00;100263.50;5134420;27;20063;-88
2022/12/31 00:43:59;;;;;;;2.33;1.65;;;;;;;11.94;100.00;100263.34;5136974;27;20495;-86
2022/12/31 00:46:25;;;;;;;2.33;1.80;;;;;;;11.92;100.00;100258.97;5142929;27;20023;-87
2022/12/31 00:48:50;;;;;;;3.72;1.80;;;;;;;11.91;100.00;100266.09;5122458;27;20482;-87
2022/12/31 00:51:19;;;;;;;4.53;1.80;;;;;;;11.93;100.00;100264.25;5154172;27;20390;-88
2022/12/31 00:53:45;;;;;;;2.67;1.70;;;;;;;11.90;100.00;100268.81;5156029;27;20058;-88
2022/12/31 00:56:16;;;;;;;3.15;1.90;;;;;;;11.85;100.00;100258.34;5136059;27;20023;-86
2022/12/31 00:58:42;;;;;;;5.00;1.77;;;;;;;11.83;100.00;100263.69;5134344;27;20113;-87
2022/12/31 01:01:22;;;;;;;4.60;2.03;;;;;;;11.81;100.00;100262.88;5119097;27;20459;-87
2022/12/31 01:03:50;;;;;;;4.55;2.05;;;;;;;11.82;100.00;100258.44;5135296;27;20077;-88
2022/12/31 01:06:16;;;;;;;3.92;2.03;;;;;;;11.83;100.00;100253.06;5151629;27;20035;-87
2022/12/31 01:08:42;;;;;;;3.08;2.00;;;;;;;11.81;100.00;100246.94;5108027;27;20145;-86
2022/12/31 01:11:23;;;;;;;2.55;1.80;;;;;;;11.80;100.00;100239.06;5138847;27;20027;-87
2022/12/31 01:14:12;;;;;;;2.17;1.70;;;;;;;11.84;100.00;100243.31;5120077;27;20114;-87
2022/12/31 01:16:44;;;;;;;2.83;1.80;;;;;;;11.81;100.00;100228.38;5115335;27;20060;-86
2022/12/31 01:19:13;;;;;;;1.27;1.17;;;;;;;11.84;100.00;100224.75;5146382;27;20121;-86
2022/12/31 01:21:40;;;;;;;2.80;1.42;;;;;;;11.84;100.00;100230.94;5149079;27;20034;-86
2022/12/31 01:24:07;;;;;;;2.67;1.35;;;;;;;11.86;100.00;100244.13;5115506;27;20092;-84
2022/12/31 01:26:33;;;;;;;1.88;1.02;;;;;;;11.86;100.00;100248.59;5119635;27;20041;-88
2022/12/31 01:28:59;;;;;;;0.82;0.63;;;;;;;11.86;100.00;100245.94;5114947;27;20110;-86
2022/12/31 01:31:24;;;;;;;1.23;1.10;;;;;;;11.84;100.00;100245.97;5123934;27;20037;-87
2022/12/31 01:33:51;;;;;;;1.25;1.10;;;;;;;11.83;100.00;100246.91;5084139;27;20054;-86
2022/12/31 01:36:20;;;;;;;1.02;0.90;;;;;;;11.80;100.00;100247.88;5128145;27;20042;-86
2022/12/31 01:38:45;;;;;;;3.60;1.05;;;;;;;11.78;100.00;100251.53;5134711;27;20015;-86
2022/12/31 01:41:14;;;;;;;2.47;1.08;;;;;;;11.79;100.00;100259.44;5126387;27;20435;-86
2022/12/31 01:43:42;;;;;;;0.98;0.80;;;;;;;11.77;100.00;100255.06;5152047;27;20027;-85
2022/12/31 01:46:11;;;;;;;1.90;1.23;;;;;;;11.77;100.00;100257.72;5112998;27;20059;-86
2022/12/31 01:48:36;;;;;;;1.13;0.93;;;;;;;11.76;100.00;100258.66;5115223;27;20046;-86
2022/12/31 01:51:02;;;;;;;1.85;1.25;;;;;;;11.77;100.00;100273.63;5112220;27;20394;-87
2022/12/31 01:53:28;;;;;;;0.88;0.80;;;;;;;11.77;100.00;100290.44;5143836;27;20046;-85
2022/12/31 01:55:57;;;;;;;2.13;1.38;;;;;;;11.77;100.00;100316.97;5152100;27;20042;-87
2022/12/31 01:58:39;;;;;;;0.90;0.90;;;;;;;11.76;100.00;100344.41;5133322;27;20018;-87
2022/12/31 02:01:07;;;;;;;3.30;1.30;;;;;;;11.74;100.00;100379.88;5117196;27;20042;-81
2022/12/31 02:03:34;;;;;;;3.42;0.88;;;;;;;11.65;100.00;100349.22;5108882;27;20428;-85
2022/12/31 02:06:11;;;;;;;0.35;0.35;;;;;;;11.65;100.00;100284.69;5132538;27;20019;-85
2022/12/31 02:08:38;;;;;;;1.60;0.57;;;;;;;11.57;100.00;100288.50;5119335;27;20050;-85
2022/12/31 02:11:20;;;;;;;1.08;0.50;;;;;;;11.53;100.00;100264.78;5068376;27;1120177;-86
2022/12/31 02:13:46;;;;;;;1.40;0.73;;;;;;;11.46;100.00;100271.22;5103339;27;20122;-86
2022/12/31 02:16:42;;;;;;;2.15;0.73;;;;;;;11.48;100.00;100301.22;5147618;27;20111;-86
2022/12/31 02:19:45;;;;;;;1.00;0.52;;;;;;;11.39;100.00;100311.19;5111373;28;20512;-88
2022/12/31 02:22:29;;;;;;;0.80;0.73;;;;;;;11.37;100.00;100321.00;5126328;28;20039;-85
2022/12/31 02:25:16;;;;;;;0.68;0.60;;;;;;;11.33;100.00;100329.97;5114759;27;20430;-85
2022/12/31 02:28:22;;;;;;;0.60;0.40;;;;;;;11.31;100.00;100325.63;5143857;27;20446;-84
2022/12/31 02:30:53;;;;;;;0.50;0.40;;;;;;;11.26;100.00;100323.13;5128449;27;20520;-86
2022/12/31 02:33:27;;;;;;;0.95;0.55;;;;;;;11.22;100.00;100328.56;5137086;27;20483;-86
2022/12/31 02:35:58;;;;;;;0.45;0.45;;;;;;;11.19;100.00;100340.13;5118814;27;20027;-86
2022/12/31 02:38:31;;;;;;;2.13;0.88;;;;;;;11.22;100.00;100315.31;5127526;27;20031;-86
2022/12/31 02:40:57;;;;;;;0.98;0.60;;;;;;;11.20;100.00;100323.31;5113048;27;20566;-85
2022/12/31 02:43:23;;;;;;;1.45;0.70;;;;;;;11.17;100.00;100328.72;5121782;27;20053;-86
2022/12/31 02:46:04;;;;;;;0.70;0.57;;;;;;;11.18;100.00;100330.47;5119029;27;20020;-86
2022/12/31 02:48:42;;;;;;;0.75;0.60;;;;;;;11.17;100.00;100331.38;5136783;27;20035;-86
2022/12/31 02:51:25;;;;;;;0.70;0.70;;;;;;;11.11;100.00;100336.88;5116901;27;20035;-87
2022/12/31 02:54:32;;;;;;;3.53;0.80;;;;;;;11.12;100.00;100322.69;5136662;27;20123;-87
2022/12/31 02:57:04;;;;;;;1.40;0.88;;;;;;;11.10;100.00;100317.47;5136263;27;20039;-86
2022/12/31 03:02:28;;;;;;;0.90;0.70;;;;;;;11.05;100.00;100322.03;5118179;27;20100;-86
2022/12/31 03:04:56;;;;;;;1.00;0.80;;;;;;;11.06;100.00;100326.44;5150954;27;20019;-86
2022/12/31 03:07:28;;;;;;;1.40;0.80;;;;;;;11.03;100.00;100318.59;5120796;27;20067;-86
2022/12/31 03:09:54;;;;;;;1.88;0.70;;;;;;;11.02;100.00;100316.84;5147006;27;20072;-87
2022/12/31 03:15:18;;;;;;;1.10;0.80;;;;;;;10.97;100.00;100301.06;5138633;27;20399;-86
2022/12/31 03:17:58;;;;;;;1.15;0.77;;;;;;;11.00;100.00;100313.34;5134095;27;20031;-86
2022/12/31 03:26:28;;;;;;;1.75;0.80;;;;;;;10.91;100.00;100282.75;5128225;27;20035;-87
2022/12/31 03:28:53;;;;;;;0.98;0.80;;;;;;;10.97;100.00;100282.53;5115249;27;20057;-86
2022/12/31 03:31:18;;;;;;;1.10;0.80;;;;;;;10.95;100.00;100294.09;5115348;27;20031;-86
2022/12/31 03:33:44;;;;;;;1.00;0.90;;;;;;;10.93;100.00;100303.91;5110107;27;20485;-87
2022/12/31 03:36:12;;;;;;;1.42;1.23;;;;;;;10.91;100.00;100290.69;5157239;27;20054;-86
2022/12/31 03:38:38;;;;;;;1.33;1.13;;;;;;;10.90;100.00;100282.78;5119164;27;20095;-86
2022/12/31 03:41:04;;;;;;;1.15;1.00;;;;;;;10.90;100.00;100281.00;5118529;27;20123;-86
2022/12/31 03:43:29;;;;;;;1.75;1.40;;;;;;;10.89;100.00;100276.63;5116653;27;20031;-86
2022/12/31 03:45:58;;;;;;;1.35;1.13;;;;;;;10.87;100.00;100285.53;5117496;27;20032;-87
2022/12/31 03:48:24;;;;;;;2.35;1.58;;;;;;;10.87;100.00;100275.81;5112923;27;20030;-87
2022/12/31 03:50:50;;;;;;;1.52;1.42;;;;;;;10.89;100.00;100275.75;5137835;27;20067;-86
2022/12/31 03:53:16;;;;;;;1.58;1.48;;;;;;;10.86;100.00;100276.72;5154584;27;20462;-87
2022/12/31 03:55:42;;;;;;;2.53;1.83;;;;;;;10.86;100.00;100271.44;5108215;27;20038;-88
2022/12/31 03:58:08;;;;;;;2.50;1.75;;;;;;;10.87;100.00;100259.91;5141687;27;20031;-88
2022/12/31 04:00:33;;;;;;;1.85;1.70;;;;;;;10.90;100.00;100273.03;5117222;27;20463;-86
2022/12/31 04:02:59;;;;;;;2.08;1.70;;;;;;;10.90;100.00;100285.44;5117114;27;20070;-87
2022/12/31 04:05:24;;;;;;;1.83;1.60;;;;;;;10.87;100.00;100278.44;5153812;27;20030;-87
2022/12/31 04:07:51;;;;;;;3.10;1.90;;;;;;;10.89;100.00;100299.59;5128731;27;20035;-86
2022/12/31 04:10:18;;;;;;;2.10;1.90;;;;;;;10.87;100.00;100290.84;5132465;27;20494;-88
2022/12/31 04:12:45;;;;;;;2.67;1.90;;;;;;;10.89;100.00;100307.56;5120728;27;20043;-86
2022/12/31 04:15:15;;;;;;;4.50;1.90;;;;;;;10.87;100.00;100301.44;5120380;27;20031;-86
2022/12/31 04:17:40;;;;;;;2.47;2.27;;;;;;;10.86;100.00;100295.28;5122791;27;20531;-86
2022/12/31 04:20:06;;;;;;;2.60;2.40;;;;;;;10.88;100.00;100287.25;5112780;27;20031;-86
2022/12/31 04:22:32;;;;;;;3.35;2.60;;;;;;;10.89;100.00;100295.16;5126052;27;20031;-86
2022/12/31 04:24:57;;;;;;;2.70;2.40;;;;;;;10.89;100.00;100281.06;5117384;27;20059;-86
2022/12/31 04:27:23;;;;;;;3.17;2.20;;;;;;;10.88;100.00;100284.59;5106015;27;20038;-86
2022/12/31 04:29:48;;;;;;;2.40;2.15;;;;;;;10.88;100.00;100285.50;5141132;27;20482;-87
2022/12/31 04:32:14;;;;;;;2.15;1.90;;;;;;;10.85;100.00;100269.69;5136802;27;20535;-87
2022/12/31 04:34:40;;;;;;;2.50;2.00;;;;;;;10.90;100.00;100278.34;5134755;27;20059;-86
2022/12/31 04:37:06;;;;;;;1.98;1.83;;;;;;;10.89;100.00;100262.53;5128636;27;20039;-87
2022/12/31 04:39:31;;;;;;;2.38;2.00;;;;;;;10.88;100.00;100259.00;5151369;27;20046;-87
2022/12/31 04:41:57;;;;;;;2.55;2.20;;;;;;;10.88;100.00;100256.38;5120903;27;20520;-88
2022/12/31 04:44:22;;;;;;;2.40;1.92;;;;;;;10.86;100.00;100254.69;5103685;27;20034;-86
2022/12/31 04:46:48;;;;;;;5.78;2.25;;;;;;;10.89;100.00;100251.91;5123883;27;20043;-87
2022/12/31 04:49:13;;;;;;;2.60;1.90;;;;;;;10.86;100.00;100278.53;5155075;27;20042;-87
2022/12/31 04:51:39;;;;;;;2.15;1.95;;;;;;;10.86;100.00;100275.88;5154027;27;20102;-86
2022/12/31 04:54:05;;;;;;;2.42;2.22;;;;;;;10.84;100.00;100293.59;5136581;27;20894;-85
2022/12/31 04:56:31;;;;;;;5.00;2.30;;;;;;;10.84;100.00;100288.28;5136701;27;20512;-85
2022/12/31 04:58:57;;;;;;;2.45;2.25;;;;;;;10.83;100.00;100281.25;5137965;27;20035;-85
2022/12/31 05:01:23;;;;;;;3.20;1.88;;;;;;;10.84;100.00;100293.59;5132527;27;20033;-85
2022/12/31 05:03:48;;;;;;;2.50;2.10;;;;;;;10.81;100.00;100291.03;5134183;27;20493;-86
2022/12/31 05:06:18;;;;;;;2.40;2.08;;;;;;;10.82;100.00;100288.31;5105311;27;20046;-85
2022/12/31 05:08:43;;;;;;;2.60;2.30;;;;;;;10.82;100.00;100304.22;5134265;27;20036;-85
2022/12/31 05:11:10;;;;;;;2.80;2.50;;;;;;;10.84;100.00;100310.34;5141732;27;20051;-86
2022/12/31 05:13:35;;;;;;;2.15;1.95;;;;;;;10.84;100.00;100306.84;5115872;27;20366;-86
2022/12/31 05:16:02;;;;;;;3.00;2.58;;;;;;;10.84;100.00;100317.44;5148513;27;20080;-85
2022/12/31 05:18:28;;;;;;;2.60;2.35;;;;;;;10.82;100.00;100311.31;5133761;27;20031;-85
2022/12/31 05:20:53;;;;;;;3.00;2.63;;;;;;;10.82;100.00;100328.06;5134830;27;20023;-86
2022/12/31 05:23:19;;;;;;;3.67;2.97;;;;;;;10.81;100.00;100321.03;5135982;27;20035;-84
2022/12/31 05:25:46;;;;;;;3.47;3.03;;;;;;;10.83;100.00;100318.31;5145274;27;20023;-86
2022/12/31 05:28:12;;;;;;;3.50;3.03;;;;;;;10.81;100.00;100323.69;5107684;27;20035;-85
2022/12/31 05:30:38;;;;;;;4.35;3.65;;;;;;;10.79;100.00;100311.41;5135820;27;20046;-78
2022/12/31 05:33:03;;;;;;;4.40;3.22;;;;;;;10.82;100.00;100317.47;5132401;27;20034;-78
2022/12/31 05:35:29;;;;;;;3.38;3.08;;;;;;;10.81;100.00;100312.22;5117828;27;20022;-78
2022/12/31 05:37:55;;;;;;;4.25;3.33;;;;;;;10.83;100.00;100313.03;5131622;27;21144;-78
2022/12/31 05:40:20;;;;;;;3.70;3.30;;;;;;;10.81;100.00;100314.88;5117784;27;20462;-77
2022/12/31 05:42:46;;;;;;;4.30;3.50;;;;;;;10.81;100.00;100313.09;5124351;27;20026;-77
2022/12/31 05:45:12;;;;;;;4.35;3.67;;;;;;;10.81;100.00;100315.75;5114775;27;20035;-78
2022/12/31 05:47:41;;;;;;;4.63;3.80;;;;;;;10.81;100.00;100313.09;5117264;27;20113;-77
2022/12/31 05:50:09;;;;;;;4.93;4.05;;;;;;;10.84;100.00;100322.72;5131933;27;20031;-78
2022/12/31 05:52:35;;;;;;;4.53;3.88;;;;;;;10.88;100.00;100327.88;5153321;27;20044;-78
2022/12/31 05:55:02;;;;;;;4.47;3.75;;;;;;;10.92;100.00;100329.50;5112325;27;20030;-78
2022/12/31 05:57:27;;;;;;;7.07;3.97;;;;;;;11.01;100.00;100346.91;5130131;27;20031;-78
2022/12/31 05:59:53;;;;;;;6.50;3.60;;;;;;;11.13;100.00;100356.25;5134530;27;20500;-78
2022/12/31 06:02:19;;;;;;;4.47;3.35;;;;;;;11.13;100.00;100343.88;5101935;27;20117;-77
2022/12/31 06:04:45;;;;;;;7.43;4.32;;;;;;;11.17;100.00;100336.66;5100275;27;20179;-77
2022/12/31 06:07:10;;;;;;;5.70;3.78;;;;;;;11.19;100.00;100340.13;5115978;27;20526;-78
2022/12/31 06:09:36;;;;;;;5.07;3.25;;;;;;;11.27;100.00;100339.88;5115218;27;20363;-77
2022/12/31 06:12:04;;;;;;;5.60;2.65;;;;;;;11.45;100.00;100327.81;5134050;27;20428;-78
2022/12/31 06:14:29;;;;;;;5.80;2.50;;;;;;;11.61;100.00;100342.28;5132481;27;20042;-78
2022/12/31 06:16:54;;;;;;;3.33;1.77;;;;;;;11.79;100.00;100343.44;5082898;27;21172;-77
2022/12/31 06:19:20;;;;;;;3.95;1.77;;;;;;;11.88;100.00;100329.88;5145148;27;20038;-76
2022/12/31 06:21:45;;;;;;;2.85;1.48;;;;;;;11.95;100.00;100342.00;5130381;27;20091;-77
2022/12/31 06:24:11;;;;;;;2.45;1.25;;;;;;;12.11;100.00;100336.16;5107065;27;20031;-77
2022/12/31 06:26:37;;;;;;;3.90;1.30;;;;;;;12.21;100.00;100333.09;5131307;27;20030;-77
2022/12/31 06:29:02;;;;;;;3.33;1.30;;;;;;;12.31;100.00;100325.66;5132086;27;20584;-78
2022/12/31 06:31:28;;;;;;;6.32;1.42;;;;;;;12.39;100.00;100325.41;5152294;27;20026;-78
2022/12/31 06:33:53;;;;;;;1.90;1.00;;;;;;;12.48;100.00;100331.19;5100086;27;20512;-78
2022/12/31 06:36:20;;;;;;;3.22;1.13;;;;;;;12.56;100.00;100328.28;5133957;27;20639;-80
2022/12/31 06:38:46;;;;;;;6.10;0.80;;;;;;;12.66;100.00;100327.00;5151499;27;20014;-79
2022/12/31 06:41:13;;;;;;;4.05;1.00;;;;;;;12.73;100.00;100321.44;5115779;27;20035;-77
2022/12/31 06:43:40;;;;;;;3.75;1.40;;;;;;;12.77;100.00;100323.06;5128461;27;20031;-77
2022/12/31 06:46:08;;;;;;;1.05;0.55;;;;;;;12.95;100.00;100327.63;5152683;27;20436;-77
2022/12/31 06:48:34;;;;;;;3.20;0.68;;;;;;;13.07;100.00;100348.41;5134108;27;20056;-78
2022/12/31 06:51:08;;;;;;;1.92;0.77;;;;;;;13.19;100.00;100341.72;5114064;27;20560;-77
2022/12/31 06:53:34;;;;;;;2.97;0.85;;;;;;;13.39;100.00;100317.00;5115022;27;20031;-78
2022/12/31 06:56:09;;;;;;;4.20;1.00;;;;;;;13.46;100.00;100322.94;5116655;27;20026;-78
2022/12/31 06:58:35;;;;;;;2.72;0.75;;;;;;;13.63;100.00;100320.44;5129525;27;20039;-79
2022/12/31 07:01:19;;;;;;;2.78;0.70;;;;;;;13.68;100.00;100336.22;5145978;27;20038;-77
2022/12/31 07:03:59;;;;;;;2.42;0.60;;;;;;;13.87;100.00;100321.19;5115499;27;20038;-78
2022/12/31 07:06:33;;;;;;;3.92;1.08;;;;;;;13.87;100.00;100317.63;5129260;27;20035;-79
2022/12/31 07:09:13;;;;;;;2.40;0.88;;;;;;;13.98;100.00;100326.88;5152394;27;20030;-78
2022/12/31 07:12:14;;;;;;;3.67;0.90;;;;;;;14.10;100.00;100345.91;5146391;27;20129;-77
2022/12/31 07:14:47;;;;;;;6.30;1.10;;;;;;;13.98;100.00;100355.31;5134929;27;20039;-81
2022/12/31 07:17:44;;;;;;;4.43;1.27;;;;;;;13.96;100.00;100325.22;5133623;27;20030;-79
2022/12/31 07:20:13;;;;;;;7.88;1.40;;;;;;;13.71;100.00;100338.72;5134638;27;20039;-80
2022/12/31 07:22:39;;;;;;;6.53;2.13;;;;;;;13.60;100.00;100347.19;5152648;27;20026;-78
2022/12/31 07:25:06;;;;;;;5.43;0.90;;;;;;;13.53;100.00;100351.88;5136200;27;20034;-78
2022/12/31 07:27:54;;;;;;;1.67;0.68;;;;;;;13.55;100.00;100342.06;5113291;27;20095;-79
2022/12/31 07:30:22;;;;;;;3.38;0.77;;;;;;;13.55;100.00;100344.72;5123988;27;20030;-79
2022/12/31 07:32:59;;;;;;;2.28;1.02;;;;;;;13.61;100.00;100351.56;5116724;27;20428;-80
2022/12/31 07:35:34;;;;;;;6.05;1.00;;;;;;;13.73;100.00;100337.72;5137494;27;20035;-79
2022/12/31 07:38:23;;;;;;;6.35;1.10;;;;;;;13.81;100.00;100331.22;5135360;27;20034;-79
2022/12/31 07:40:58;;;;;;;4.18;1.05;;;;;;;13.86;100.00;100348.72;5135027;27;20038;-80
2022/12/31 07:43:43;;;;;;;5.03;1.10;;;;;;;14.05;100.00;100330.16;5135146;27;20145;-80
2022/12/31 07:46:25;;;;;;;2.67;0.80;;;;;;;13.98;100.00;100320.69;5128724;27;20366;-80
2022/12/31 07:48:51;;;;;;;4.00;1.33;;;;;;;14.01;100.00;100328.53;5154872;27;20031;-79
2022/12/31 07:51:16;;;;;;;4.32;1.13;;;;;;;14.00;100.00;100323.31;5118875;27;20121;-79
2022/12/31 07:53:42;;;;;;;7.25;1.35;;;;;;;14.11;100.00;100310.34;5137152;27;20385;-79
2022/12/31 07:56:08;;;;;;;4.97;1.10;;;;;;;14.17;100.00;100332.25;5133856;27;20054;-80
2022/12/31 07:58:54;;;;;;;8.57;1.27;;;;;;;14.21;100.00;100338.28;5132529;27;20483;-80
2022/12/31 08:01:34;;;;;;;5.30;1.13;;;;;;;14.03;100.00;100317.84;5117910;27;20031;-80
2022/12/31 08:04:24;;;;;;;4.50;1.40;;;;;;;13.99;100.00;100319.75;5119085;27;20034;-80
2022/12/31 08:07:30;;;;;;;4.97;1.23;;;;;;;13.94;100.00;100325.28;5116303;27;20034;-81
2022/12/31 08:10:13;;;;;;;4.07;0.82;;;;;;;14.00;100.00;100344.59;5131902;27;20037;-78
2022/12/31 08:12:40;;;;;;;4.55;1.23;;;;;;;13.98;100.00;100356.16;5110081;27;20039;-78
2022/12/31 08:15:14;;;;;;;3.50;1.30;;;;;;;13.81;100.00;100350.72;5134974;27;20563;-78
2022/12/31 08:17:40;;;;;;;3.20;1.30;;;;;;;13.86;100.00;100391.28;5122687;27;20039;-79
2022/12/31 08:20:06;;;;;;;3.28;1.25;;;;;;;13.87;100.00;100384.16;5125505;27;20489;-81
2022/12/31 08:23:03;;;;;;;7.20;1.23;;;;;;;14.02;100.00;100401.28;5103796;27;20356;-80
2022/12/31 08:25:54;;;;;;;5.05;1.25;;;;;;;14.08;100.00;100406.34;5106739;27;20023;-79
2022/12/31 08:28:35;;;;;;;5.55;1.77;;;;;;;14.17;100.00;100427.28;5145657;27;20038;-84
2022/12/31 08:31:10;;;;;;;3.30;1.03;;;;;;;14.09;100.00;100434.69;5111574;27;20046;-84
2022/12/31 08:33:52;;;;;;;3.47;1.15;;;;;;;14.08;100.00;100452.47;5115783;27;20038;-79
2022/12/31 08:36:23;;;;;;;5.75;1.17;;;;;;;13.98;100.00;100452.00;5123835;27;20110;-79
2022/12/31 08:39:24;;;;;;;2.58;1.00;;;;;;;13.98;100.00;100460.00;5128264;27;20037;-79
2022/12/31 08:41:53;;;;;;;8.43;1.10;;;;;;;14.02;100.00;100454.53;5115658;27;20045;-80
2022/12/31 08:44:24;;;;;;;3.60;0.95;;;;;;;14.05;100.00;100487.22;5135303;27;20023;-81
2022/12/31 08:47:14;;;;;;;2.45;0.70;;;;;;;14.06;100.00;100478.28;5138693;27;20034;-78
2022/12/31 08:49:41;;;;;;;3.13;1.10;;;;;;;14.06;100.00;100478.28;5128060;27;20062;-80
2022/12/31 08:52:21;;;;;;;4.22;1.15;;;;;;;14.18;100.00;100488.44;5138864;27;20130;-79
2022/12/31 08:54:47;;;;;;;3.33;0.90;;;;;;;14.11;100.00;100496.75;5110190;27;20038;-80
2022/12/31 08:57:28;;;;;;;3.25;1.17;;;;;;;14.10;100.00;100511.88;5114467;27;20023;-80
2022/12/31 09:00:14;;;;;;;4.72;1.10;;;;;;;13.99;100.00;100516.75;5127945;27;20026;-81
2022/12/31 09:03:13;;;;;;;9.18;1.45;;;;;;;14.04;100.00;100509.44;5133475;27;20050;-79
2022/12/31 09:06:21;;;;;;;2.55;0.95;;;;;;;14.00;100.00;100517.66;5133109;27;20060;-82
2022/12/31 09:08:57;;;;;;;3.42;1.13;;;;;;;13.93;100.00;100530.31;5032873;28;20041;-80
2022/12/31 09:12:08;;;;;;;4.78;1.60;;;;;;;13.91;100.00;100521.53;5121470;27;20108;-80
2022/12/31 09:14:53;;;;;;;4.78;1.23;;;;;;;13.88;100.00;100534.97;5117553;27;20117;-80
2022/12/31 09:17:43;;;;;;;4.15;1.20;;;;;;;13.97;100.00;100547.88;5118599;27;20031;-82
2022/12/31 09:20:25;;;;;;;3.15;0.90;;;;;;;14.07;100.00;100548.38;5114951;27;20038;-81
2022/12/31 09:22:52;;;;;;;7.40;1.25;;;;;;;14.05;100.00;100559.13;5114887;27;20447;-79
2022/12/31 09:25:20;;;;;;;2.15;0.73;;;;;;;14.07;100.00;100561.69;5139348;27;20476;-80
2022/12/31 09:28:44;;;;;;;2.97;0.93;;;;;;;14.22;100.00;100574.41;5135836;27;20068;-81
2022/12/31 09:31:20;;;;;;;3.50;1.17;;;;;;;14.27;100.00;100571.53;5061685;28;20389;-80
2022/12/31 09:33:52;;;;;;;2.35;0.80;;;;;;;14.10;100.00;100578.44;5123664;27;20104;-84
2022/12/31 09:36:45;;;;;;;1.73;0.80;;;;;;;14.07;100.00;100590.97;5119608;27;20389;-81
2022/12/31 09:39:31;;;;;;;;;;;;;;;13.93;100.00;100595.06;5151111;27;20027;-80
2022/12/31 09:42:32;;;;;;;4.60;1.23;;;;;;;13.82;100.00;100580.44;5116148;27;19957;-81
2022/12/31 09:45:23;;;;;;;9.15;1.40;;;;;;;13.68;100.00;100578.34;5133771;27;20048;-80
2022/12/31 09:48:11;;;;;;;4.53;1.10;;;;;;;13.70;100.00;100580.03;5138852;27;20566;-80
2022/12/31 09:50:53;;;;;;;5.32;1.60;;;;;;;13.67;100.00;100587.25;5141045;27;20041;-80
2022/12/31 09:53:38;;;;;;;5.00;1.48;;;;;;;13.65;100.00;100589.09;5123988;27;20042;-80
2022/12/31 09:56:11;;;;;;;5.10;1.60;;;;;;;13.66;100.00;100590.84;5130846;27;20065;-81
2022/12/31 09:58:55;;;;;;;4.70;1.58;;;;;;;13.69;100.00;100580.06;5120287;27;20772;-81
2022/12/31 10:01:52;;;;;;;6.50;1.27;;;;;;;13.73;100.00;100589.69;5115722;27;20027;-81
2022/12/31 10:04:42;;;;;;;5.03;1.65;;;;;;;13.74;100.00;100583.41;5129559;27;20051;-80
2022/12/31 10:07:23;;;;;;;6.07;1.80;;;;;;;13.75;100.00;100587.84;5112325;27;20031;-79
2022/12/31 10:10:13;;;;;;;5.53;1.38;;;;;;;13.82;100.00;100585.78;5116076;27;20291;-79
2022/12/31 10:12:54;;;;;;;6.13;1.45;;;;;;;13.83;100.00;100607.03;5144725;27;20057;-81
2022/12/31 10:15:34;;;;;;;4.07;1.52;;;;;;;13.83;100.00;100585.72;5107229;27;20064;-80
2022/12/31 10:18:15;;;;;;;6.53;1.53;;;;;;;13.81;100.00;100594.69;5133132;27;20371;-80
2022/12/31 10:21:00;;;;;;;4.20;1.90;;;;;;;13.82;100.00;100597.28;5132363;27;20038;-82
2022/12/31 10:23:46;;;;;;;7.05;4.10;;;;;;;13.83;100.00;100601.69;5126643;27;20042;-79
2022/12/31 10:26:18;;;;;;;6.95;1.92;;;;;;;13.91;100.00;100594.25;5114976;28;20410;-81
2022/12/31 10:29:13;;;;;;;10.73;2.40;;;;;;;13.97;100.00;100587.81;5119727;27;20023;-81
2022/12/31 10:31:53;;;;;;;6.25;1.65;;;;;;;14.11;100.00;100572.16;5128289;27;20095;-83
2022/12/31 10:34:45;;;;;;;6.50;1.73;;;;;;;13.97;100.00;100555.88;5128599;27;20038;-81
2022/12/31 10:37:17;;;;;;;5.03;1.42;;;;;;;14.09;100.00;100576.69;5108635;27;20038;-82
2022/12/31 10:39:57;;;;;;;8.25;1.80;;;;;;;14.08;100.00;100563.44;5105052;27;20034;-80
2022/12/31 10:42:49;;;;;;;3.88;1.38;;;;;;;14.13;100.00;100559.66;5131918;27;20055;-81
2022/12/31 10:45:41;;;;;;;5.55;1.30;;;;;;;14.15;100.00;100565.78;5126035;27;20045;-80
2022/12/31 10:48:44;;;;;;;8.40;1.92;;;;;;;14.26;100.00;100568.00;5112983;27;20031;-80
2022/12/31 11:01:31;;;;;;;10.93;2.13;;;;;;;14.33;100.00;100580.13;5216388;23;20948;-81
2022/12/31 11:11:11;;;;;;;3.78;1.50;;;;;;;14.39;100.00;100581.66;5603452;23;20521;-86
2022/12/31 11:20:22;;;;;;;8.48;1.73;;;;;;;14.67;100.00;100577.91;5073111;23;20229;-82
2022/12/31 11:23:10;;;;;;;6.43;1.83;;;;;;;14.67;100.00;100585.91;4934810;29;20044;-83
